sensor_id;sensor_type;location;lat;lon;timestamp;pressure;altitude;pressure_sealevel;temperature;humidity
55685;BME280;41883;49.544;8.646;2023-02-17T00:00:05;101308.53;;;10.90;nan
55685;BME280;41883;49.544;8.646;2023-02-17T00:02:31;101301.81;;;10.86;nan
55685;BME280;41883;49.544;8.646;2023-02-17T00:04:57;101300.72;;;10.89;nan
55685;BME280;41883;49.544;8.646;2023-02-17T00:07:22;101291.94;;;10.88;nan
55685;BME280;41883;49.544;8.646;2023-02-17T00:09:47;101297.13;;;10.90;nan
55685;BME280;41883;49.544;8.646;2023-02-17T00:12:12;101304.50;;;10.96;nan
55685;BME280;41883;49.544;8.646;2023-02-17T00:14:37;101298.38;;;10.95;nan
55685;BME280;41883;49.544;8.646;2023-02-17T00:17:03;101295.72;;;10.95;nan
55685;BME280;41883;49.544;8.646;2023-02-17T00:19:28;101293.91;;;10.96;nan
55685;BME280;41883;49.544;8.646;2023-02-17T00:21:57;101288.44;;;10.78;nan
55685;BME280;41883;49.544;8.646;2023-02-17T00:24:23;101294.25;;;10.72;nan
55685;BME280;41883;49.544;8.646;2023-02-17T00:26:49;101287.00;;;10.64;nan
55685;BME280;41883;49.544;8.646;2023-02-17T00:29:14;101293.69;;;10.68;nan
55685;BME280;41883;49.544;8.646;2023-02-17T00:31:40;101302.06;;;10.73;nan
55685;BME280;41883;49.544;8.646;2023-02-17T00:34:05;101292.91;;;10.77;nan
55685;BME280;41883;49.544;8.646;2023-02-17T00:36:30;101291.63;;;10.81;nan
55685;BME280;41883;49.544;8.646;2023-02-17T00:38:56;101291.38;;;10.84;nan
55685;BME280;41883;49.544;8.646;2023-02-17T00:41:22;101302.09;;;10.83;nan
55685;BME280;41883;49.544;8.646;2023-02-17T00:43:47;101304.72;;;10.73;nan
55685;BME280;41883;49.544;8.646;2023-02-17T00:46:13;101303.41;;;10.68;nan
55685;BME280;41883;49.544;8.646;2023-02-17T00:48:39;101299.94;;;10.67;nan
55685;BME280;41883;49.544;8.646;2023-02-17T00:51:04;101300.78;;;10.68;nan
55685;BME280;41883;49.544;8.646;2023-02-17T00:53:29;101302.16;;;10.62;nan
55685;BME280;41883;49.544;8.646;2023-02-17T00:55:55;101293.69;;;10.68;nan
55685;BME280;41883;49.544;8.646;2023-02-17T00:58:20;101294.66;;;10.67;nan
55685;BME280;41883;49.544;8.646;2023-02-17T01:00:45;101298.84;;;10.70;nan
55685;BME280;41883;49.544;8.646;2023-02-17T01:03:10;101290.06;;;10.69;nan
55685;BME280;41883;49.544;8.646;2023-02-17T01:05:43;101289.34;;;10.67;nan
55685;BME280;41883;49.544;8.646;2023-02-17T01:08:08;101299.94;;;10.67;nan
55685;BME280;41883;49.544;8.646;2023-02-17T01:10:37;101294.94;;;10.64;nan
55685;BME280;41883;49.544;8.646;2023-02-17T01:13:02;101294.19;;;10.52;nan
55685;BME280;41883;49.544;8.646;2023-02-17T01:15:27;101294.13;;;10.43;nan
55685;BME280;41883;49.544;8.646;2023-02-17T01:17:53;101299.16;;;10.46;nan
55685;BME280;41883;49.544;8.646;2023-02-17T01:20:18;101284.97;;;10.47;nan
55685;BME280;41883;49.544;8.646;2023-02-17T01:22:43;101285.94;;;10.46;nan
55685;BME280;41883;49.544;8.646;2023-02-17T01:25:08;101280.53;;;10.47;nan
55685;BME280;41883;49.544;8.646;2023-02-17T01:27:34;101281.47;;;10.46;nan
55685;BME280;41883;49.544;8.646;2023-02-17T01:29:59;101283.72;;;10.51;nan
55685;BME280;41883;49.544;8.646;2023-02-17T01:32:27;101278.44;;;10.51;nan
55685;BME280;41883;49.544;8.646;2023-02-17T01:34:53;101281.78;;;10.53;nan
55685;BME280;41883;49.544;8.646;2023-02-17T01:37:18;101279.28;;;10.51;nan
55685;BME280;41883;49.544;8.646;2023-02-17T01:39:46;101281.53;;;10.56;nan
55685;BME280;41883;49.544;8.646;2023-02-17T01:42:18;101286.13;;;10.54;nan
55685;BME280;41883;49.544;8.646;2023-02-17T01:47:28;101287.50;;;10.58;nan
55685;BME280;41883;49.544;8.646;2023-02-17T01:49:53;101283.22;;;10.57;nan
55685;BME280;41883;49.544;8.646;2023-02-17T01:52:20;101279.56;;;10.58;nan
55685;BME280;41883;49.544;8.646;2023-02-17T01:54:57;101277.63;;;10.60;nan
55685;BME280;41883;49.544;8.646;2023-02-17T01:57:25;101275.97;;;10.59;nan
55685;BME280;41883;49.544;8.646;2023-02-17T01:59:52;101266.09;;;10.61;nan
55685;BME280;41883;49.544;8.646;2023-02-17T02:02:18;101266.09;;;10.61;nan
55685;BME280;41883;49.544;8.646;2023-02-17T02:04:44;101268.47;;;10.64;nan
55685;BME280;41883;49.544;8.646;2023-02-17T02:07:13;101261.66;;;10.61;nan
55685;BME280;41883;49.544;8.646;2023-02-17T02:09:46;101266.09;;;10.61;nan
55685;BME280;41883;49.544;8.646;2023-02-17T02:12:23;101253.00;;;10.59;nan
55685;BME280;41883;49.544;8.646;2023-02-17T02:14:49;101263.59;;;10.59;nan
55685;BME280;41883;49.544;8.646;2023-02-17T02:22:39;101258.97;;;10.52;nan
55685;BME280;41883;49.544;8.646;2023-02-17T02:35:33;101251.13;;;10.40;nan
55685;BME280;41883;49.544;8.646;2023-02-17T02:40:46;101246.22;;;10.36;nan
55685;BME280;41883;49.544;8.646;2023-02-17T02:43:13;101241.06;;;10.34;nan
55685;BME280;41883;49.544;8.646;2023-02-17T02:45:39;101235.34;;;10.29;nan
55685;BME280;41883;49.544;8.646;2023-02-17T02:48:04;101232.81;;;10.28;nan
55685;BME280;41883;49.544;8.646;2023-02-17T02:58:09;101220.72;;;10.25;nan
55685;BME280;41883;49.544;8.646;2023-02-17T03:00:40;101219.84;;;10.25;nan
55685;BME280;41883;49.544;8.646;2023-02-17T03:06:01;101216.25;;;10.26;nan
55685;BME280;41883;49.544;8.646;2023-02-17T03:08:36;101206.38;;;10.28;nan
55685;BME280;41883;49.544;8.646;2023-02-17T03:11:02;101209.91;;;10.28;nan
55685;BME280;41883;49.544;8.646;2023-02-17T03:13:27;101203.75;;;10.28;nan
55685;BME280;41883;49.544;8.646;2023-02-17T03:15:53;101198.72;;;10.25;nan
55685;BME280;41883;49.544;8.646;2023-02-17T03:18:18;101197.75;;;10.26;nan
55685;BME280;41883;49.544;8.646;2023-02-17T03:20:50;101208.16;;;10.27;nan
55685;BME280;41883;49.544;8.646;2023-02-17T03:23:20;101201.97;;;10.28;nan
55685;BME280;41883;49.544;8.646;2023-02-17T03:25:45;101205.53;;;10.27;nan
55685;BME280;41883;49.544;8.646;2023-02-17T03:28:11;101203.63;;;10.29;nan
55685;BME280;41883;49.544;8.646;2023-02-17T03:30:36;101196.41;;;10.31;nan
55685;BME280;41883;49.544;8.646;2023-02-17T03:33:02;101197.09;;;10.33;nan
55685;BME280;41883;49.544;8.646;2023-02-17T03:35:27;101205.88;;;10.34;nan
55685;BME280;41883;49.544;8.646;2023-02-17T03:37:52;101194.91;;;10.38;nan
55685;BME280;41883;49.544;8.646;2023-02-17T03:40:17;101192.44;;;10.47;nan
55685;BME280;41883;49.544;8.646;2023-02-17T03:42:43;101194.22;;;10.46;nan
55685;BME280;41883;49.544;8.646;2023-02-17T03:45:08;101185.88;;;10.51;nan
55685;BME280;41883;49.544;8.646;2023-02-17T03:47:33;101191.16;;;10.51;nan
55685;BME280;41883;49.544;8.646;2023-02-17T03:49:58;101186.75;;;10.51;nan
55685;BME280;41883;49.544;8.646;2023-02-17T03:52:24;101192.72;;;10.53;nan
55685;BME280;41883;49.544;8.646;2023-02-17T03:54:49;101196.22;;;10.54;nan
55685;BME280;41883;49.544;8.646;2023-02-17T03:57:14;101202.34;;;10.54;nan
55685;BME280;41883;49.544;8.646;2023-02-17T03:59:39;101197.03;;;10.54;nan
55685;BME280;41883;49.544;8.646;2023-02-17T04:02:04;101199.81;;;10.53;nan
55685;BME280;41883;49.544;8.646;2023-02-17T04:04:29;101195.34;;;10.53;nan
55685;BME280;41883;49.544;8.646;2023-02-17T04:06:55;101201.50;;;10.54;nan
55685;BME280;41883;49.544;8.646;2023-02-17T04:09:20;101208.84;;;10.50;nan
55685;BME280;41883;49.544;8.646;2023-02-17T04:11:45;101205.66;;;10.47;nan
55685;BME280;41883;49.544;8.646;2023-02-17T04:14:10;101206.75;;;10.44;nan
55685;BME280;41883;49.544;8.646;2023-02-17T04:16:35;101211.06;;;10.45;nan
55685;BME280;41883;49.544;8.646;2023-02-17T04:19:03;101217.59;;;10.41;nan
55685;BME280;41883;49.544;8.646;2023-02-17T04:21:29;101214.13;;;10.40;nan
55685;BME280;41883;49.544;8.646;2023-02-17T04:23:54;101214.50;;;10.36;nan
55685;BME280;41883;49.544;8.646;2023-02-17T04:26:19;101217.97;;;10.36;nan
55685;BME280;41883;49.544;8.646;2023-02-17T04:28:44;101226.78;;;10.37;nan
55685;BME280;41883;49.544;8.646;2023-02-17T04:31:10;101219.91;;;10.34;nan
55685;BME280;41883;49.544;8.646;2023-02-17T04:33:35;101232.47;;;10.32;nan
55685;BME280;41883;49.544;8.646;2023-02-17T04:36:01;101231.97;;;10.27;nan
55685;BME280;41883;49.544;8.646;2023-02-17T04:38:27;101229.22;;;10.29;nan
55685;BME280;41883;49.544;8.646;2023-02-17T04:40:53;101239.91;;;10.27;nan
55685;BME280;41883;49.544;8.646;2023-02-17T04:43:19;101229.47;;;10.26;nan
55685;BME280;41883;49.544;8.646;2023-02-17T04:45:44;101234.50;;;10.29;nan
55685;BME280;41883;49.544;8.646;2023-02-17T04:48:10;101220.72;;;10.25;nan
55685;BME280;41883;49.544;8.646;2023-02-17T04:50:35;101228.63;;;10.25;nan
55685;BME280;41883;49.544;8.646;2023-02-17T04:53:00;101225.00;;;10.26;nan
55685;BME280;41883;49.544;8.646;2023-02-17T04:55:25;101235.88;;;10.23;nan
55685;BME280;41883;49.544;8.646;2023-02-17T04:57:50;101225.28;;;10.23;nan
55685;BME280;41883;49.544;8.646;2023-02-17T05:00:16;101226.41;;;10.20;nan
55685;BME280;41883;49.544;8.646;2023-02-17T05:02:41;101225.41;;;10.21;nan
55685;BME280;41883;49.544;8.646;2023-02-17T05:05:06;101228.06;;;10.21;nan
55685;BME280;41883;49.544;8.646;2023-02-17T05:07:31;101225.41;;;10.21;nan
55685;BME280;41883;49.544;8.646;2023-02-17T05:09:56;101225.81;;;10.17;nan
55685;BME280;41883;49.544;8.646;2023-02-17T05:12:22;101228.44;;;10.17;nan
55685;BME280;41883;49.544;8.646;2023-02-17T05:14:47;101219.69;;;10.16;nan
55685;BME280;41883;49.544;8.646;2023-02-17T05:17:12;101224.16;;;10.16;nan
55685;BME280;41883;49.544;8.646;2023-02-17T05:19:37;101220.78;;;10.14;nan
55685;BME280;41883;49.544;8.646;2023-02-17T05:22:02;101224.00;;;10.17;nan
55685;BME280;41883;49.544;8.646;2023-02-17T05:24:28;101227.03;;;10.13;nan
55685;BME280;41883;49.544;8.646;2023-02-17T05:26:53;101231.38;;;10.14;nan
55685;BME280;41883;49.544;8.646;2023-02-17T05:29:18;101228.44;;;10.17;nan
55685;BME280;41883;49.544;8.646;2023-02-17T05:31:43;101230.25;;;10.16;nan
55685;BME280;41883;49.544;8.646;2023-02-17T05:34:08;101231.75;;;10.09;nan
55685;BME280;41883;49.544;8.646;2023-02-17T05:36:34;101231.75;;;10.09;nan
55685;BME280;41883;49.544;8.646;2023-02-17T05:38:59;101227.31;;;10.10;nan
55685;BME280;41883;49.544;8.646;2023-02-17T05:41:24;101234.28;;;10.11;nan
55685;BME280;41883;49.544;8.646;2023-02-17T05:43:49;101229.00;;;10.11;nan
55685;BME280;41883;49.544;8.646;2023-02-17T05:46:14;101232.47;;;10.11;nan
55685;BME280;41883;49.544;8.646;2023-02-17T05:48:39;101222.84;;;10.10;nan
55685;BME280;41883;49.544;8.646;2023-02-17T05:51:05;101226.34;;;10.11;nan
55685;BME280;41883;49.544;8.646;2023-02-17T05:53:30;101234.41;;;10.09;nan
55685;BME280;41883;49.544;8.646;2023-02-17T05:55:55;101226.59;;;10.08;nan
55685;BME280;41883;49.544;8.646;2023-02-17T05:58:20;101229.22;;;10.08;nan
55685;BME280;41883;49.544;8.646;2023-02-17T06:00:46;101238.03;;;10.08;nan
55685;BME280;41883;49.544;8.646;2023-02-17T06:03:11;101232.75;;;10.08;nan
55685;BME280;41883;49.544;8.646;2023-02-17T06:05:36;101240.66;;;10.08;nan
55685;BME280;41883;49.544;8.646;2023-02-17T06:08:02;101237.31;;;10.06;nan
55685;BME280;41883;49.544;8.646;2023-02-17T06:10:27;101240.78;;;10.07;nan
55685;BME280;41883;49.544;8.646;2023-02-17T06:12:52;101245.09;;;10.08;nan
55685;BME280;41883;49.544;8.646;2023-02-17T06:15:17;101253.28;;;10.05;nan
55685;BME280;41883;49.544;8.646;2023-02-17T06:17:43;101255.94;;;10.05;nan
55685;BME280;41883;49.544;8.646;2023-02-17T06:20:08;101260.50;;;10.03;nan
55685;BME280;41883;49.544;8.646;2023-02-17T06:22:34;101258.69;;;10.03;nan
55685;BME280;41883;49.544;8.646;2023-02-17T06:24:59;101258.84;;;10.02;nan
55685;BME280;41883;49.544;8.646;2023-02-17T06:27:24;101263.41;;;9.99;nan
55685;BME280;41883;49.544;8.646;2023-02-17T06:29:49;101259.78;;;10.00;nan
55685;BME280;41883;49.544;8.646;2023-02-17T06:32:15;101254.50;;;10.00;nan
55685;BME280;41883;49.544;8.646;2023-02-17T06:34:40;101250.63;;;10.05;nan
55685;BME280;41883;49.544;8.646;2023-02-17T06:37:05;101249.94;;;10.03;nan
55685;BME280;41883;49.544;8.646;2023-02-17T06:39:30;101251.75;;;10.02;nan
55685;BME280;41883;49.544;8.646;2023-02-17T06:41:56;101246.34;;;10.04;nan
55685;BME280;41883;49.544;8.646;2023-02-17T06:44:21;101243.81;;;10.02;nan
55685;BME280;41883;49.544;8.646;2023-02-17T06:46:46;101248.38;;;10.00;nan
55685;BME280;41883;49.544;8.646;2023-02-17T06:49:11;101239.75;;;9.98;nan
55685;BME280;41883;49.544;8.646;2023-02-17T06:51:37;101248.38;;;10.00;nan
55685;BME280;41883;49.544;8.646;2023-02-17T06:54:02;101246.84;;;9.97;nan
55685;BME280;41883;49.544;8.646;2023-02-17T06:56:27;101242.53;;;9.96;nan
55685;BME280;41883;49.544;8.646;2023-02-17T06:58:52;101257.53;;;9.96;nan
55685;BME280;41883;49.544;8.646;2023-02-17T07:01:19;101250.31;;;9.98;nan
55685;BME280;41883;49.544;8.646;2023-02-17T07:03:45;101253.66;;;10.00;nan
55685;BME280;41883;49.544;8.646;2023-02-17T07:06:17;101253.56;;;10.02;nan
55685;BME280;41883;49.544;8.646;2023-02-17T07:08:43;101265.06;;;10.00;nan
55685;BME280;41883;49.544;8.646;2023-02-17T07:11:09;101268.69;;;9.99;nan
55685;BME280;41883;49.544;8.646;2023-02-17T07:13:35;101274.94;;;9.98;nan
55685;BME280;41883;49.544;8.646;2023-02-17T07:16:01;101280.22;;;9.98;nan
55685;BME280;41883;49.544;8.646;2023-02-17T07:18:26;101287.47;;;9.96;nan
55685;BME280;41883;49.544;8.646;2023-02-17T07:20:55;101288.28;;;9.97;nan
55685;BME280;41883;49.544;8.646;2023-02-17T07:23:20;101284.66;;;9.98;nan
55685;BME280;41883;49.544;8.646;2023-02-17T07:25:46;101296.06;;;9.98;nan
55685;BME280;41883;49.544;8.646;2023-02-17T07:28:13;101297.75;;;9.99;nan
55685;BME280;41883;49.544;8.646;2023-02-17T07:30:40;101298.47;;;10.02;nan
55685;BME280;41883;49.544;8.646;2023-02-17T07:33:06;101304.13;;;9.97;nan
55685;BME280;41883;49.544;8.646;2023-02-17T07:35:31;101303.31;;;9.96;nan
55685;BME280;41883;49.544;8.646;2023-02-17T07:37:58;101304.97;;;9.97;nan
55685;BME280;41883;49.544;8.646;2023-02-17T07:40:23;101311.81;;;10.00;nan
55685;BME280;41883;49.544;8.646;2023-02-17T07:42:49;101314.19;;;10.03;nan
55685;BME280;41883;49.544;8.646;2023-02-17T07:45:14;101325.00;;;10.00;nan
55685;BME280;41883;49.544;8.646;2023-02-17T07:47:42;101314.31;;;10.02;nan
55685;BME280;41883;49.544;8.646;2023-02-17T07:50:08;101329.34;;;10.01;nan
55685;BME280;41883;49.544;8.646;2023-02-17T07:52:33;101314.19;;;10.03;nan
55685;BME280;41883;49.544;8.646;2023-02-17T07:54:59;101307.13;;;10.04;nan
55685;BME280;41883;49.544;8.646;2023-02-17T07:57:24;101312.25;;;10.05;nan
55685;BME280;41883;49.544;8.646;2023-02-17T07:59:49;101310.44;;;10.06;nan
55685;BME280;41883;49.544;8.646;2023-02-17T08:02:15;101303.09;;;10.09;nan
55685;BME280;41883;49.544;8.646;2023-02-17T08:04:43;101304.19;;;10.07;nan
55685;BME280;41883;49.544;8.646;2023-02-17T08:07:14;101304.91;;;10.09;nan
55685;BME280;41883;49.544;8.646;2023-02-17T08:09:39;101300.56;;;10.08;nan
55685;BME280;41883;49.544;8.646;2023-02-17T08:12:23;101308.72;;;10.16;nan
55685;BME280;41883;49.544;8.646;2023-02-17T08:15:08;101307.16;;;10.13;nan
55685;BME280;41883;49.544;8.646;2023-02-17T08:17:33;101299.09;;;10.15;nan
55685;BME280;41883;49.544;8.646;2023-02-17T08:19:59;101304.00;;;10.19;nan
55685;BME280;41883;49.544;8.646;2023-02-17T08:22:24;101301.63;;;10.16;nan
55685;BME280;41883;49.544;8.646;2023-02-17T08:24:49;101315.41;;;10.20;nan
55685;BME280;41883;49.544;8.646;2023-02-17T08:27:15;101311.53;;;10.24;nan
55685;BME280;41883;49.544;8.646;2023-02-17T08:29:41;101317.53;;;10.26;nan
55685;BME280;41883;49.544;8.646;2023-02-17T08:32:07;101314.88;;;10.26;nan
55685;BME280;41883;49.544;8.646;2023-02-17T08:34:35;101313.69;;;10.30;nan
55685;BME280;41883;49.544;8.646;2023-02-17T08:37:01;101326.66;;;10.33;nan
55685;BME280;41883;49.544;8.646;2023-02-17T08:39:27;101311.50;;;10.35;nan
55685;BME280;41883;49.544;8.646;2023-02-17T08:41:55;101311.06;;;10.30;nan
55685;BME280;41883;49.544;8.646;2023-02-17T08:44:21;101314.13;;;10.35;nan
55685;BME280;41883;49.544;8.646;2023-02-17T08:46:47;101321.09;;;10.36;nan
55685;BME280;41883;49.544;8.646;2023-02-17T08:49:14;101314.69;;;10.39;nan
55685;BME280;41883;49.544;8.646;2023-02-17T08:51:45;101320.59;;;10.43;nan
55685;BME280;41883;49.544;8.646;2023-02-17T08:54:10;101316.25;;;10.41;nan
55685;BME280;41883;49.544;8.646;2023-02-17T08:56:41;101315.41;;;10.41;nan
55685;BME280;41883;49.544;8.646;2023-02-17T08:59:08;101319.75;;;10.42;nan
55685;BME280;41883;49.544;8.646;2023-02-17T09:01:39;101304.59;;;10.44;nan
55685;BME280;41883;49.544;8.646;2023-02-17T09:04:05;101296.94;;;10.51;nan
55685;BME280;41883;49.544;8.646;2023-02-17T09:09:23;101304.75;;;10.52;nan
55685;BME280;41883;49.544;8.646;2023-02-17T09:11:56;101309.78;;;10.55;nan
55685;BME280;41883;49.544;8.646;2023-02-17T09:14:24;101302.44;;;10.59;nan
55685;BME280;41883;49.544;8.646;2023-02-17T09:16:50;101311.06;;;10.61;nan
55685;BME280;41883;49.544;8.646;2023-02-17T09:19:15;101311.91;;;10.61;nan
55685;BME280;41883;49.544;8.646;2023-02-17T09:21:41;101302.34;;;10.70;nan
55685;BME280;41883;49.544;8.646;2023-02-17T09:24:06;101297.56;;;10.64;nan
55685;BME280;41883;49.544;8.646;2023-02-17T09:26:34;101297.13;;;10.59;nan
55685;BME280;41883;49.544;8.646;2023-02-17T09:29:00;101308.66;;;10.58;nan
55685;BME280;41883;49.544;8.646;2023-02-17T09:31:28;101309.38;;;10.60;nan
55685;BME280;41883;49.544;8.646;2023-02-17T09:33:56;101307.56;;;10.60;nan
55685;BME280;41883;49.544;8.646;2023-02-17T09:36:33;101310.91;;;10.62;nan
55685;BME280;41883;49.544;8.646;2023-02-17T09:39:01;101302.13;;;10.52;nan
55685;BME280;41883;49.544;8.646;2023-02-17T09:41:35;101313.47;;;10.43;nan
55685;BME280;41883;49.544;8.646;2023-02-17T09:44:03;101302.84;;;10.33;nan
55685;BME280;41883;49.544;8.646;2023-02-17T09:46:30;101304.44;;;10.25;nan
55685;BME280;41883;49.544;8.646;2023-02-17T09:49:04;101297.03;;;10.18;nan
55685;BME280;41883;49.544;8.646;2023-02-17T09:51:33;101306.19;;;10.14;nan
55685;BME280;41883;49.544;8.646;2023-02-17T09:54:02;101305.63;;;10.11;nan
55685;BME280;41883;49.544;8.646;2023-02-17T09:56:37;101305.88;;;10.08;nan
55685;BME280;41883;49.544;8.646;2023-02-17T10:02:01;101302.72;;;10.14;nan
55685;BME280;41883;49.544;8.646;2023-02-17T10:04:34;101307.88;;;10.15;nan
55685;BME280;41883;49.544;8.646;2023-02-17T10:07:08;101318.19;;;10.18;nan
55685;BME280;41883;49.544;8.646;2023-02-17T10:09:51;101316.50;;;10.17;nan
55685;BME280;41883;49.544;8.646;2023-02-17T10:12:20;101323.59;;;10.17;nan
55685;BME280;41883;49.544;8.646;2023-02-17T10:14:59;101320.56;;;10.21;nan
55685;BME280;41883;49.544;8.646;2023-02-17T10:20:02;101332.06;;;10.32;nan
55685;BME280;41883;49.544;8.646;2023-02-17T10:22:27;101326.13;;;10.39;nan
55685;BME280;41883;49.544;8.646;2023-02-17T10:24:56;101330.06;;;10.45;nan
55685;BME280;41883;49.544;8.646;2023-02-17T10:27:41;101332.63;;;10.56;nan
55685;BME280;41883;49.544;8.646;2023-02-17T10:35:28;101338.28;;;10.73;nan
55685;BME280;41883;49.544;8.646;2023-02-17T10:38:02;101339.25;;;10.81;nan
55685;BME280;41883;49.544;8.646;2023-02-17T10:40:49;101345.53;;;10.80;nan
55685;BME280;41883;49.544;8.646;2023-02-17T10:43:21;101349.41;;;10.76;nan
55685;BME280;41883;49.544;8.646;2023-02-17T10:45:51;101347.31;;;10.70;nan
55685;BME280;41883;49.544;8.646;2023-02-17T10:48:27;101347.81;;;10.64;nan
55685;BME280;41883;49.544;8.646;2023-02-17T10:50:57;101348.09;;;10.61;nan
55685;BME280;41883;49.544;8.646;2023-02-17T10:53:24;101343.53;;;10.63;nan
55685;BME280;41883;49.544;8.646;2023-02-17T10:58:30;101338.66;;;10.68;nan
55685;BME280;41883;49.544;8.646;2023-02-17T11:00:57;101334.53;;;10.75;nan
55685;BME280;41883;49.544;8.646;2023-02-17T11:03:29;101334.13;;;10.80;nan
55685;BME280;41883;49.544;8.646;2023-02-17T11:06:01;101332.34;;;10.90;nan
55685;BME280;41883;49.544;8.646;2023-02-17T11:08:35;101336.94;;;10.98;nan
55685;BME280;41883;49.544;8.646;2023-02-17T11:11:03;101330.44;;;11.02;nan
55685;BME280;41883;49.544;8.646;2023-02-17T11:13:36;101326.41;;;11.08;nan
55685;BME280;41883;49.544;8.646;2023-02-17T11:16:03;101318.03;;;11.12;nan
55685;BME280;41883;49.544;8.646;2023-02-17T11:18:32;101315.28;;;11.23;nan
55685;BME280;41883;49.544;8.646;2023-02-17T11:21:02;101315.72;;;11.29;nan
55685;BME280;41883;49.544;8.646;2023-02-17T11:23:33;101308.59;;;11.39;nan
55685;BME280;41883;49.544;8.646;2023-02-17T11:26:09;101317.25;;;11.51;nan
55685;BME280;41883;49.544;8.646;2023-02-17T11:28:50;101313.38;;;11.55;nan
55685;BME280;41883;49.544;8.646;2023-02-17T11:31:23;101308.91;;;11.65;nan
55685;BME280;41883;49.544;8.646;2023-02-17T11:33:57;101309.72;;;11.65;nan
55685;BME280;41883;49.544;8.646;2023-02-17T11:36:24;101303.88;;;11.72;nan
55685;BME280;41883;49.544;8.646;2023-02-17T11:38:50;101306.53;;;11.72;nan
55685;BME280;41883;49.544;8.646;2023-02-17T11:41:15;101296.94;;;11.71;nan
55685;BME280;41883;49.544;8.646;2023-02-17T11:43:57;101297.47;;;11.74;nan
55685;BME280;41883;49.544;8.646;2023-02-17T11:46:34;101300.00;;;11.76;nan
55685;BME280;41883;49.544;8.646;2023-02-17T11:56:51;101291.94;;;11.87;nan
55685;BME280;41883;49.544;8.646;2023-02-17T12:04:30;101292.16;;;12.03;nan
55685;BME280;41883;49.544;8.646;2023-02-17T12:06:58;101292.84;;;12.05;nan
55685;BME280;41883;49.544;8.646;2023-02-17T12:12:22;101288.56;;;12.04;nan
55685;BME280;41883;49.544;8.646;2023-02-17T12:17:43;101295.66;;;12.14;nan
55685;BME280;41883;49.544;8.646;2023-02-17T12:20:19;101296.63;;;12.13;nan
55685;BME280;41883;49.544;8.646;2023-02-17T12:25:25;101297.28;;;12.24;nan
55685;BME280;41883;49.544;8.646;2023-02-17T12:28:06;101294.63;;;12.24;nan
55685;BME280;41883;49.544;8.646;2023-02-17T12:30:46;101298.53;;;12.30;nan
55685;BME280;41883;49.544;8.646;2023-02-17T12:35:52;101296.28;;;12.35;nan
55685;BME280;41883;49.544;8.646;2023-02-17T12:38:32;101295.97;;;12.48;nan
55685;BME280;41883;49.544;8.646;2023-02-17T12:41:03;101291.47;;;12.48;nan
55685;BME280;41883;49.544;8.646;2023-02-17T12:43:36;101294.56;;;12.44;nan
55685;BME280;41883;49.544;8.646;2023-02-17T12:46:05;101294.44;;;12.45;nan
55685;BME280;41883;49.544;8.646;2023-02-17T12:48:42;101287.88;;;12.49;nan
55685;BME280;41883;49.544;8.646;2023-02-17T12:51:52;101288.56;;;12.51;nan
55685;BME280;41883;49.544;8.646;2023-02-17T12:53:58;101282.06;;;12.64;nan
55685;BME280;41883;49.544;8.646;2023-02-17T12:56:32;101290.72;;;12.66;nan
55685;BME280;41883;49.544;8.646;2023-02-17T13:01:36;101278.00;;;12.69;nan
55685;BME280;41883;49.544;8.646;2023-02-17T13:04:01;101270.59;;;12.73;nan
55685;BME280;41883;49.544;8.646;2023-02-17T13:06:33;101271.06;;;12.86;nan
55685;BME280;41883;49.544;8.646;2023-02-17T13:11:44;101257.13;;;13.20;nan
55685;BME280;41883;49.544;8.646;2023-02-17T13:14:10;101264.53;;;13.44;nan
55685;BME280;41883;49.544;8.646;2023-02-17T13:16:43;101261.97;;;13.52;nan
55685;BME280;41883;49.544;8.646;2023-02-17T13:19:08;101251.63;;;13.67;nan
55685;BME280;41883;49.544;8.646;2023-02-17T13:21:33;101247.72;;;13.79;nan
55685;BME280;41883;49.544;8.646;2023-02-17T13:28:54;101246.44;;;13.66;nan
55685;BME280;41883;49.544;8.646;2023-02-17T13:31:30;101234.38;;;13.71;nan
55685;BME280;41883;49.544;8.646;2023-02-17T13:33:56;101239.53;;;13.73;nan
55685;BME280;41883;49.544;8.646;2023-02-17T13:39:00;101241.13;;;13.66;nan
55685;BME280;41883;49.544;8.646;2023-02-17T13:41:48;101249.97;;;13.66;nan
55685;BME280;41883;49.544;8.646;2023-02-17T13:44:28;101243.97;;;13.64;nan
55685;BME280;41883;49.544;8.646;2023-02-17T13:47:01;101251.09;;;13.64;nan
55685;BME280;41883;49.544;8.646;2023-02-17T13:49:28;101247.16;;;13.50;nan
55685;BME280;41883;49.544;8.646;2023-02-17T13:52:05;101233.50;;;13.45;nan
55685;BME280;41883;49.544;8.646;2023-02-17T13:54:30;101242.44;;;13.44;nan
55685;BME280;41883;49.544;8.646;2023-02-17T13:56:56;101256.00;;;13.32;nan
55685;BME280;41883;49.544;8.646;2023-02-17T13:59:25;101255.44;;;13.29;nan
55685;BME280;41883;49.544;8.646;2023-02-17T14:01:50;101267.38;;;13.15;nan
55685;BME280;41883;49.544;8.646;2023-02-17T14:04:21;101265.88;;;13.12;nan
55685;BME280;41883;49.544;8.646;2023-02-17T14:06:46;101263.38;;;13.11;nan
55685;BME280;41883;49.544;8.646;2023-02-17T14:09:50;101264.28;;;13.02;nan
55685;BME280;41883;49.544;8.646;2023-02-17T14:12:06;101274.59;;;13.05;nan
55685;BME280;41883;49.544;8.646;2023-02-17T14:14:41;101273.91;;;13.03;nan
55685;BME280;41883;49.544;8.646;2023-02-17T14:17:07;101263.41;;;13.01;nan
55685;BME280;41883;49.544;8.646;2023-02-17T14:19:41;101268.19;;;12.98;nan
55685;BME280;41883;49.544;8.646;2023-02-17T14:22:20;101257.03;;;12.94;nan
55685;BME280;41883;49.544;8.646;2023-02-17T14:24:46;101247.47;;;12.83;nan
55685;BME280;41883;49.544;8.646;2023-02-17T14:27:21;101243.75;;;12.76;nan
55685;BME280;41883;49.544;8.646;2023-02-17T14:29:46;101249.81;;;12.68;nan
55685;BME280;41883;49.544;8.646;2023-02-17T14:32:28;101247.59;;;12.64;nan
55685;BME280;41883;49.544;8.646;2023-02-17T14:35:04;101230.16;;;12.61;nan
55685;BME280;41883;49.544;8.646;2023-02-17T14:37:29;101219.97;;;12.57;nan
55685;BME280;41883;49.544;8.646;2023-02-17T14:39:57;101229.91;;;12.54;nan